Time;durP1;ratioP1;P1;durP2;ratioP2;P2;SDS_P1;SDS_P2;PMS_P1;PMS_P2;Temp;Humidity;BMP_temperature;BMP_pressure;BME280_temperature;BME280_humidity;BME280_pressure;Samples;Min_cycle;Max_cycle;Signal;HPM_P1;HPM_P2
2022/05/11 00:01:32;;;;;;;9.95;6.63;;;;;;;13.96;72.05;94126.78;4974212;28;20061;-60
2022/05/11 00:04:00;;;;;;;10.80;6.93;;;;;;;13.89;72.28;94125.00;4972913;28;20059;-61
2022/05/11 00:06:28;;;;;;;10.10;6.80;;;;;;;13.84;72.59;94131.03;4973071;28;20124;-63
2022/05/11 00:08:56;;;;;;;10.10;6.80;;;;;;;13.69;72.58;94125.06;4973942;28;20057;-64
2022/05/11 00:11:26;;;;;;;10.10;6.60;;;;;;;13.66;72.68;94120.44;4973121;28;20480;-63
2022/05/11 00:13:53;;;;;;;10.73;7.47;;;;;;;13.64;72.83;94119.28;4973929;28;20584;-64
2022/05/11 00:16:20;;;;;;;10.05;7.40;;;;;;;13.61;73.00;94115.44;4973454;28;20385;-61
2022/05/11 00:18:47;;;;;;;9.32;6.43;;;;;;;13.42;73.79;94114.31;4973820;28;20039;-60
2022/05/11 00:21:14;;;;;;;10.23;6.73;;;;;;;13.39;73.58;94115.16;4973478;28;20039;-60
2022/05/11 00:23:41;;;;;;;10.30;7.03;;;;;;;13.34;74.32;94112.88;4973713;28;20051;-61
2022/05/11 00:26:07;;;;;;;9.82;6.80;;;;;;;13.22;74.31;94117.09;4973032;28;20054;-60
2022/05/11 00:28:34;;;;;;;11.13;6.78;;;;;;;13.17;74.08;94117.56;4973670;28;20053;-64
2022/05/11 00:31:01;;;;;;;9.90;6.97;;;;;;;13.14;74.17;94112.94;4973163;28;20061;-60
2022/05/11 00:33:29;;;;;;;12.13;7.27;;;;;;;13.11;74.31;94108.25;4973620;28;20043;-60
2022/05/11 00:35:56;;;;;;;9.88;7.00;;;;;;;13.09;74.58;94118.94;4973497;28;20055;-60
2022/05/11 00:38:26;;;;;;;11.45;7.30;;;;;;;13.03;75.00;94104.88;4972831;28;20049;-60
2022/05/11 00:40:58;;;;;;;11.57;7.18;;;;;;;12.97;74.89;94101.09;4956204;28;20050;-60
2022/05/11 00:43:52;;;;;;;11.30;7.55;;;;;;;12.89;75.69;94100.44;4955603;28;20049;-61
2022/05/11 00:46:42;;;;;;;11.93;6.97;;;;;;;12.82;76.04;94108.09;4986051;28;20467;-62
2022/05/11 00:49:36;;;;;;;18.92;12.63;;;;;;;12.79;76.23;94101.47;4972910;28;20057;-62
2022/05/11 00:52:44;;;;;;;16.98;11.30;;;;;;;12.71;76.07;94106.31;4972780;28;20059;-63
2022/05/11 00:55:17;;;;;;;19.77;8.10;;;;;;;12.66;75.93;94104.09;4972331;28;20043;-62
2022/05/11 00:58:02;;;;;;;11.07;7.75;;;;;;;12.57;76.43;94104.63;4973154;28;20059;-60
2022/05/11 01:00:29;;;;;;;12.03;7.60;;;;;;;12.51;77.05;94105.56;4972250;28;20435;-63
2022/05/11 01:03:03;;;;;;;10.52;7.28;;;;;;;12.44;77.03;94097.47;4973062;28;20065;-62
2022/05/11 01:05:30;;;;;;;11.48;7.70;;;;;;;12.34;77.51;94099.97;4972096;28;21850;-62
2022/05/11 01:07:58;;;;;;;10.23;7.32;;;;;;;12.33;77.69;94100.41;4972733;28;20051;-61
2022/05/11 01:10:28;;;;;;;11.45;7.07;;;;;;;12.29;77.64;94092.19;4971675;28;20932;-60
2022/05/11 01:12:59;;;;;;;12.00;7.50;;;;;;;12.31;77.63;94097.28;4973038;28;20047;-60
2022/05/11 01:15:29;;;;;;;12.13;7.88;;;;;;;12.26;78.38;94097.81;4971927;28;20743;-62
2022/05/11 01:17:57;;;;;;;11.93;7.70;;;;;;;12.21;78.05;94099.03;4985202;28;20046;-64
2022/05/11 01:20:25;;;;;;;12.27;7.90;;;;;;;12.22;77.70;94097.09;4991433;28;20599;-64
2022/05/11 01:23:15;;;;;;;11.82;7.90;;;;;;;12.14;77.82;94094.47;4974636;28;20046;-61
2022/05/11 01:25:42;;;;;;;15.13;7.33;;;;;;;12.09;78.11;94094.97;4974171;28;20052;-65
2022/05/11 01:28:12;;;;;;;15.23;9.70;;;;;;;12.01;77.79;94090.75;4991382;28;20060;-64
2022/05/11 01:31:03;;;;;;;12.75;8.73;;;;;;;11.99;78.07;94095.91;4991974;28;20047;-61
2022/05/11 01:33:31;;;;;;;12.05;7.50;;;;;;;11.89;78.17;94091.38;4981229;28;21980;-61
2022/05/11 01:36:11;;;;;;;13.23;7.68;;;;;;;11.86;78.52;94097.69;4991875;28;20056;-62
2022/05/11 01:38:43;;;;;;;10.87;7.50;;;;;;;11.81;78.65;94101.69;4957661;28;20063;-60
2022/05/11 01:41:18;;;;;;;14.43;7.90;;;;;;;11.81;78.99;94101.69;4991077;28;20050;-61
2022/05/11 01:43:45;;;;;;;10.73;7.70;;;;;;;11.77;79.13;94096.28;4987767;28;20076;-65
2022/05/11 01:46:13;;;;;;;13.90;8.02;;;;;;;11.65;79.70;94098.81;4982436;28;20062;-61
2022/05/11 01:48:40;;;;;;;11.13;7.82;;;;;;;11.51;80.19;94091.56;4991681;28;20068;-61
2022/05/11 01:51:07;;;;;;;13.73;8.20;;;;;;;11.49;80.74;94089.28;4990830;28;20046;-60
2022/05/11 01:53:34;;;;;;;12.52;7.72;;;;;;;11.48;80.35;94097.91;4991431;28;20049;-60
2022/05/11 01:56:01;;;;;;;12.48;8.40;;;;;;;11.49;80.12;94093.97;4989681;28;20061;-61
2022/05/11 01:58:28;;;;;;;14.00;7.97;;;;;;;11.44;80.29;94094.44;4974057;28;20047;-64
2022/05/11 02:00:54;;;;;;;13.98;8.00;;;;;;;11.40;80.32;94089.78;4991516;28;20132;-63
2022/05/11 02:03:21;;;;;;;10.97;7.87;;;;;;;11.39;80.36;94090.22;4991179;28;20038;-60
2022/05/11 02:08:37;;;;;;;11.35;7.57;;;;;;;11.23;80.38;94092.78;4990435;28;20164;-60
2022/05/11 02:11:05;;;;;;;12.32;7.47;;;;;;;11.24;80.28;94097.88;4990472;28;20050;-65
2022/05/11 02:13:32;;;;;;;12.40;8.18;;;;;;;11.25;81.08;94095.91;4989478;28;20047;-60
2022/05/11 02:16:00;;;;;;;14.13;9.37;;;;;;;11.16;81.24;94093.69;4981812;28;20484;-60
2022/05/11 02:18:27;;;;;;;14.35;8.80;;;;;;;11.09;81.70;94091.06;4970221;28;20133;-61
2022/05/11 02:20:54;;;;;;;15.10;8.40;;;;;;;11.09;81.23;94093.81;4991060;28;20051;-61
2022/05/11 02:23:22;;;;;;;13.18;7.93;;;;;;;11.05;81.35;94096.59;4990477;28;20052;-64
2022/05/11 02:25:50;;;;;;;12.70;7.90;;;;;;;10.99;81.18;94096.28;4990926;28;20446;-65
2022/05/11 02:28:21;;;;;;;12.93;8.07;;;;;;;10.96;82.40;94091.59;4990264;28;20437;-61
2022/05/11 02:30:51;;;;;;;15.10;8.55;;;;;;;10.92;82.17;94096.38;4990870;28;20076;-63
2022/05/11 02:33:18;;;;;;;14.10;8.23;;;;;;;10.91;81.82;94099.53;4972995;28;20054;-64
2022/05/11 02:35:46;;;;;;;12.18;7.82;;;;;;;10.90;81.62;94100.72;4990840;28;20042;-64
2022/05/11 02:38:17;;;;;;;12.90;8.10;;;;;;;10.87;81.97;94099.59;4990146;28;20074;-64
2022/05/11 02:40:44;;;;;;;12.47;8.57;;;;;;;10.86;82.09;94097.25;4990699;28;20053;-60
2022/05/11 02:43:11;;;;;;;11.68;7.72;;;;;;;10.80;81.91;94096.94;4990150;28;20410;-63
2022/05/11 02:45:40;;;;;;;13.23;8.80;;;;;;;10.78;82.31;94094.63;4990492;28;20058;-62
2022/05/11 02:48:08;;;;;;;12.07;7.75;;;;;;;10.77;82.22;94100.50;4990135;28;20046;-65
2022/05/11 02:50:43;;;;;;;13.07;8.10;;;;;;;10.71;82.03;94096.66;4990561;28;20046;-63
2022/05/11 02:53:11;;;;;;;13.73;7.90;;;;;;;10.68;81.89;94092.00;4990088;28;20517;-60
2022/05/11 02:55:40;;;;;;;13.15;7.68;;;;;;;10.65;82.53;94098.31;4990606;28;20058;-59
2022/05/11 02:58:07;;;;;;;12.38;8.30;;;;;;;10.57;83.03;94109.38;4990139;28;20088;-63
2022/05/11 03:00:36;;;;;;;15.30;8.60;;;;;;;10.50;83.64;94101.25;4973236;28;20061;-62
2022/05/11 03:03:05;;;;;;;13.07;8.73;;;;;;;10.46;83.84;94096.97;4990150;28;20108;-59
2022/05/11 03:05:32;;;;;;;12.27;8.20;;;;;;;10.46;83.61;94091.47;4990526;28;20053;-60
2022/05/11 03:07:59;;;;;;;14.82;8.82;;;;;;;10.44;83.66;94102.09;4990517;28;20042;-60
2022/05/11 03:10:26;;;;;;;13.23;8.60;;;;;;;10.41;83.80;94097.44;4989224;28;20881;-60
2022/05/11 03:12:53;;;;;;;12.43;8.65;;;;;;;10.40;84.13;94099.38;4990311;28;20256;-64
2022/05/11 03:15:21;;;;;;;14.43;9.07;;;;;;;10.40;84.32;94104.84;4980207;28;20050;-65
2022/05/11 03:17:48;;;;;;;12.50;7.77;;;;;;;10.35;83.86;94102.59;4992650;28;20050;-67
2022/05/11 03:20:15;;;;;;;13.27;8.68;;;;;;;10.34;83.54;94110.03;4993883;28;20042;-60
2022/05/11 03:22:48;;;;;;;12.10;8.07;;;;;;;10.30;83.58;94103.81;4976961;28;20042;-60
2022/05/11 03:25:14;;;;;;;14.57;8.68;;;;;;;10.29;83.65;94102.22;4993743;28;20120;-61
2022/05/11 03:27:41;;;;;;;11.80;7.90;;;;;;;10.25;83.68;94104.22;4994242;28;20049;-64
2022/05/11 03:30:09;;;;;;;12.43;7.80;;;;;;;10.22;83.52;94096.81;4993677;28;20043;-62
2022/05/11 03:35:21;;;;;;;14.40;8.70;;;;;;;10.05;84.86;94095.03;4993420;28;20042;-60
2022/05/11 03:37:48;;;;;;;13.55;8.80;;;;;;;10.05;84.58;94095.81;4993926;28;20057;-62
2022/05/11 03:40:14;;;;;;;14.50;8.65;;;;;;;10.08;84.99;94096.97;4976082;28;20054;-61
2022/05/11 03:42:42;;;;;;;11.77;7.70;;;;;;;10.05;84.92;94095.03;4994061;28;20049;-61
2022/05/11 03:45:18;;;;;;;16.33;9.40;;;;;;;10.07;84.73;94084.44;4993336;28;20042;-66
2022/05/11 03:47:46;;;;;;;14.30;9.77;;;;;;;10.04;84.63;94088.78;4993909;28;20487;-60
2022/05/11 03:50:15;;;;;;;15.73;9.35;;;;;;;10.03;84.83;94087.22;4993239;28;20039;-62
2022/05/11 03:52:42;;;;;;;13.27;8.93;;;;;;;10.01;85.09;94084.09;4993803;28;20047;-61
2022/05/11 03:55:10;;;;;;;13.67;8.87;;;;;;;9.99;84.63;94087.25;4993104;28;20105;-61
2022/05/11 03:57:38;;;;;;;13.55;9.00;;;;;;;9.97;84.71;94088.84;4993740;28;20411;-60
2022/05/11 04:00:09;;;;;;;14.52;8.80;;;;;;;9.97;84.82;94088.84;4975759;28;20065;-61
2022/05/11 04:02:36;;;;;;;16.23;9.85;;;;;;;9.90;85.73;94094.41;4993529;28;20050;-62
2022/05/11 04:05:03;;;;;;;15.18;9.20;;;;;;;9.97;85.08;94097.84;4975709;28;20057;-61
2022/05/11 04:07:30;;;;;;;14.73;9.13;;;;;;;10.03;84.84;94089.97;4993418;28;20038;-60
2022/05/11 04:09:57;;;;;;;12.80;8.50;;;;;;;10.08;84.73;94092.28;4993210;28;20066;-60
2022/05/11 04:12:26;;;;;;;14.43;9.32;;;;;;;10.14;84.17;94098.88;4992743;28;20046;-60
2022/05/11 04:14:53;;;;;;;12.60;8.98;;;;;;;10.19;84.01;94098.41;4993267;28;20043;-61
2022/05/11 04:17:20;;;;;;;12.65;8.77;;;;;;;10.25;83.28;94090.50;4992896;28;20104;-62
2022/05/11 04:19:47;;;;;;;16.53;9.30;;;;;;;10.29;83.65;94088.50;4975626;28;20081;-64
2022/05/11 04:22:13;;;;;;;13.90;8.80;;;;;;;10.29;83.73;94094.00;4992609;28;20113;-59
2022/05/11 04:24:40;;;;;;;17.58;9.30;;;;;;;10.36;82.66;94088.47;4993087;28;20043;-60
2022/05/11 04:27:07;;;;;;;14.80;10.57;;;;;;;10.36;82.62;94093.16;4983276;28;20038;-63
2022/05/11 04:29:38;;;;;;;14.10;9.00;;;;;;;10.35;82.72;94094.34;4964031;28;20043;-60
2022/05/11 04:32:07;;;;;;;16.47;9.00;;;;;;;10.41;82.64;94086.47;4972758;28;20043;-62
2022/05/11 04:34:34;;;;;;;15.80;9.60;;;;;;;10.39;83.06;94092.34;4973525;28;20045;-61
2022/05/11 04:37:01;;;;;;;12.93;8.70;;;;;;;10.47;82.93;94085.59;4972778;28;20057;-61
2022/05/11 04:39:28;;;;;;;14.88;9.23;;;;;;;10.48;82.90;94095.34;4973358;28;20042;-62
2022/05/11 04:41:55;;;;;;;13.82;9.20;;;;;;;10.50;82.70;94095.75;4973241;28;20049;-64
2022/05/11 04:44:21;;;;;;;15.23;8.60;;;;;;;10.54;82.65;94099.22;4972656;28;20043;-60
2022/05/11 04:46:49;;;;;;;16.80;8.57;;;;;;;10.61;82.49;94097.59;4955816;28;20042;-63
2022/05/11 04:49:19;;;;;;;15.73;9.82;;;;;;;10.67;82.34;94104.16;4972772;28;20236;-59
2022/05/11 04:51:47;;;;;;;14.13;9.32;;;;;;;10.71;82.28;94096.66;4973334;28;20069;-60
2022/05/11 04:54:15;;;;;;;16.13;9.43;;;;;;;10.78;82.19;94099.31;4972362;28;20051;-59
2022/05/11 04:56:42;;;;;;;15.20;9.43;;;;;;;10.71;82.43;94091.19;4972946;28;20451;-59
2022/05/11 04:59:09;;;;;;;14.77;9.60;;;;;;;10.71;82.51;94094.69;4972524;28;20058;-60
2022/05/11 05:01:36;;;;;;;14.75;9.43;;;;;;;10.69;82.83;94099.81;4972500;28;20050;-60
2022/05/11 05:04:03;;;;;;;18.20;9.73;;;;;;;10.73;82.89;94100.56;4972445;28;20051;-63
2022/05/11 05:06:33;;;;;;;15.52;9.55;;;;;;;10.85;82.78;94104.72;4972883;28;20043;-61
2022/05/11 05:09:02;;;;;;;14.87;9.67;;;;;;;10.96;82.83;94099.84;4971734;28;20051;-60
2022/05/11 05:11:30;;;;;;;14.27;9.85;;;;;;;11.03;82.91;94098.97;4955210;28;20038;-65
2022/05/11 05:13:56;;;;;;;16.90;10.73;;;;;;;11.01;83.30;94104.09;4972507;28;20061;-60
2022/05/11 05:16:23;;;;;;;15.48;10.25;;;;;;;10.89;83.99;94107.41;4955302;28;20042;-63
2022/05/11 05:18:50;;;;;;;15.65;10.65;;;;;;;10.89;84.84;94110.16;4991838;28;20045;-59
2022/05/11 05:21:17;;;;;;;16.30;10.73;;;;;;;10.78;84.62;94102.84;4991485;28;20049;-59
2022/05/11 05:23:48;;;;;;;16.05;10.38;;;;;;;10.78;84.75;94104.78;4992145;28;20057;-61
2022/05/11 05:26:15;;;;;;;16.83;11.02;;;;;;;10.88;85.26;94108.59;4991516;28;20054;-60
2022/05/11 05:31:29;;;;;;;17.77;11.55;;;;;;;11.50;83.63;94118.28;4991067;28;20787;-65
2022/05/11 05:33:59;;;;;;;17.90;11.40;;;;;;;11.68;83.31;94120.75;4974550;28;20073;-60
2022/05/11 05:36:31;;;;;;;17.48;11.48;;;;;;;11.67;82.76;94113.72;4990912;28;20790;-60
2022/05/11 05:38:59;;;;;;;16.33;11.32;;;;;;;11.79;82.81;94117.81;4991364;28;20049;-63
2022/05/11 05:41:27;;;;;;;17.35;11.55;;;;;;;11.94;82.29;94121.94;4990537;28;21791;-62
2022/05/11 05:43:54;;;;;;;16.83;11.73;;;;;;;12.26;81.49;94117.84;4991329;28;20042;-59
2022/05/11 05:46:22;;;;;;;18.37;11.40;;;;;;;13.76;76.57;94124.91;4990864;28;20039;-60
2022/05/11 05:48:50;;;;;;;17.65;11.27;;;;;;;17.30;65.18;94116.47;4991374;28;20447;-60
2022/05/11 05:51:19;;;;;;;17.80;12.05;;;;;;;19.46;55.59;94120.16;4973670;28;20077;-60
2022/05/11 05:53:46;;;;;;;14.95;11.00;;;;;;;21.31;50.56;94119.78;4991354;28;20054;-60
2022/05/11 05:56:14;;;;;;;15.20;10.82;;;;;;;21.83;48.14;94122.19;4990858;28;20046;-61
2022/05/11 05:58:44;;;;;;;12.93;10.80;;;;;;;21.48;48.91;94122.13;4991262;28;20124;-60
2022/05/11 06:01:12;;;;;;;13.63;10.73;;;;;;;22.44;46.47;94118.00;4965466;28;20051;-61
2022/05/11 06:03:40;;;;;;;15.77;10.95;;;;;;;22.54;46.14;94108.22;4982743;28;20051;-63
2022/05/11 06:06:08;;;;;;;13.80;10.38;;;;;;;23.58;44.96;94109.56;4971242;28;20043;-61
2022/05/11 06:08:36;;;;;;;12.02;10.02;;;;;;;24.69;42.48;94113.66;4971750;28;20054;-63
2022/05/11 06:11:06;;;;;;;11.63;9.80;;;;;;;26.10;39.54;94105.50;4970798;28;20059;-60
2022/05/11 06:13:34;;;;;;;13.63;10.45;;;;;;;26.14;38.21;94108.84;4971611;28;20596;-62
2022/05/11 06:16:01;;;;;;;12.73;9.60;;;;;;;26.56;37.96;94100.53;4971140;28;20059;-60
2022/05/11 06:18:29;;;;;;;12.57;9.80;;;;;;;25.29;40.46;94097.53;4988357;28;20053;-65
2022/05/11 06:20:56;;;;;;;11.30;9.52;;;;;;;25.67;40.71;94100.88;4991048;28;20084;-62
2022/05/11 06:23:23;;;;;;;11.57;9.43;;;;;;;26.58;38.51;94101.59;4990570;28;20471;-61
2022/05/11 06:25:50;;;;;;;11.27;9.45;;;;;;;26.97;37.40;94105.53;4973992;28;20494;-63
2022/05/11 06:28:18;;;;;;;10.80;9.25;;;;;;;27.94;36.79;94100.84;4990354;28;20092;-61
2022/05/11 06:31:05;;;;;;;11.25;9.57;;;;;;;28.09;36.40;94104.03;4976115;28;20046;-60
2022/05/11 06:33:37;;;;;;;11.90;9.38;;;;;;;29.21;34.04;94102.06;4974246;28;20383;-65
2022/05/11 06:36:06;;;;;;;11.73;9.40;;;;;;;30.10;32.26;94094.84;4990307;28;20355;-61
2022/05/11 06:38:33;;;;;;;10.35;8.68;;;;;;;28.98;33.79;94095.19;4990492;28;20054;-63
2022/05/11 06:41:12;;;;;;;12.05;8.60;;;;;;;29.94;32.22;94091.00;4989987;28;20042;-63
2022/05/11 06:43:38;;;;;;;11.05;8.68;;;;;;;30.30;32.19;94088.59;4973406;28;20411;-62
2022/05/11 06:46:05;;;;;;;10.68;8.02;;;;;;;29.25;33.50;94096.88;4990230;28;20402;-61
2022/05/11 06:48:32;;;;;;;12.37;7.97;;;;;;;29.39;33.07;94091.31;4990502;28;20046;-60
2022/05/11 06:50:59;;;;;;;9.80;7.70;;;;;;;29.65;33.24;94082.94;4990045;28;20503;-59
2022/05/11 06:53:26;;;;;;;8.60;6.88;;;;;;;30.30;31.61;94087.81;4969523;28;20420;-63
2022/05/11 07:01:24;;;;;;;7.33;5.93;;;;;;;30.55;31.41;94079.94;4969660;28;20038;-62
2022/05/11 07:03:51;;;;;;;7.72;5.90;;;;;;;28.47;34.76;94081.59;4953731;28;20047;-59
2022/05/11 07:06:17;;;;;;;6.82;5.63;;;;;;;28.85;32.95;94076.06;4953017;28;20397;-59
2022/05/11 07:08:45;;;;;;;6.30;5.70;;;;;;;29.89;31.78;94078.47;4970967;28;20112;-60
2022/05/11 07:13:57;;;;;;;7.03;5.90;;;;;;;27.98;34.32;94079.53;4956660;28;20393;-60
2022/05/11 07:16:25;;;;;;;7.38;5.55;;;;;;;28.18;33.96;94080.38;4970855;28;20053;-59
2022/05/11 07:18:53;;;;;;;6.57;5.80;;;;;;;28.57;32.98;94071.50;4990500;28;20499;-59
2022/05/11 07:21:19;;;;;;;7.30;5.80;;;;;;;29.39;31.82;94066.63;4990011;28;20248;-59
2022/05/11 07:23:46;;;;;;;6.43;5.30;;;;;;;27.95;33.28;94069.31;4990304;28;20380;-60
2022/05/11 07:26:13;;;;;;;6.57;5.47;;;;;;;28.28;33.46;94062.56;4989555;28;20385;-60
2022/05/11 07:28:40;;;;;;;8.63;5.93;;;;;;;28.01;33.33;94066.41;4990034;28;20129;-67
2022/05/11 07:31:07;;;;;;;6.85;5.78;;;;;;;27.39;34.89;94053.56;4989876;28;20042;-63
2022/05/11 07:33:34;;;;;;;7.97;5.93;;;;;;;27.72;33.91;94065.88;4990322;28;20479;-66
2022/05/11 07:36:02;;;;;;;6.70;5.45;;;;;;;28.70;32.12;94064.44;4989731;28;20049;-57
2022/05/11 07:38:29;;;;;;;6.07;5.33;;;;;;;28.54;31.97;94058.47;4989873;28;20043;-60
2022/05/11 07:40:55;;;;;;;6.00;5.40;;;;;;;28.65;32.83;94064.00;4989883;28;20050;-65
2022/05/11 07:43:23;;;;;;;6.50;5.80;;;;;;;29.37;31.23;94059.97;4988111;28;20047;-64
2022/05/11 07:45:50;;;;;;;6.00;5.40;;;;;;;30.57;29.26;94049.75;4981020;28;20069;-63
2022/05/11 07:48:20;;;;;;;7.90;5.28;;;;;;;29.18;31.58;94060.00;4970238;28;20045;-65
2022/05/11 07:50:47;;;;;;;6.90;5.40;;;;;;;28.70;32.04;94067.28;4953624;28;20533;-63
2022/05/11 07:53:14;;;;;;;13.95;12.48;;;;;;;29.23;31.95;94054.25;4970123;28;20058;-60
2022/05/11 07:55:40;;;;;;;18.50;14.80;;;;;;;30.57;29.43;94052.56;4970573;28;20054;-65
2022/05/11 08:01:12;;;;;;;10.63;6.63;;;;;;;32.56;26.04;94053.19;4909960;28;20379;-59
2022/05/11 08:03:39;;;;;;;6.90;5.00;;;;;;;33.02;25.04;94061.97;4958369;28;20047;-61
2022/05/11 08:06:06;;;;;;;11.70;9.02;;;;;;;31.78;26.48;94044.56;4973506;28;20049;-61
2022/05/11 08:08:33;;;;;;;6.35;5.03;;;;;;;32.95;24.16;94053.41;4973920;28;20500;-66
2022/05/11 08:10:59;;;;;;;6.30;4.70;;;;;;;33.35;22.95;94053.00;4953269;28;20054;-61
2022/05/11 08:13:26;;;;;;;6.82;4.80;;;;;;;32.66;24.68;94047.75;4953576;28;21805;-60
2022/05/11 08:15:53;;;;;;;10.63;8.27;;;;;;;32.99;24.67;94036.72;4954692;28;20057;-60
2022/05/11 08:18:19;;;;;;;8.82;5.00;;;;;;;31.52;25.44;94043.38;4954339;28;20071;-66
2022/05/11 08:20:46;;;;;;;7.15;4.72;;;;;;;32.62;25.19;94045.25;4954692;28;20047;-62
2022/05/11 08:23:14;;;;;;;7.72;5.68;;;;;;;32.75;25.05;94038.69;4954253;28;20488;-60
2022/05/11 08:25:43;;;;;;;5.68;5.00;;;;;;;31.28;26.28;94044.41;4954432;28;20061;-62
2022/05/11 08:28:14;;;;;;;6.00;4.70;;;;;;;31.64;26.14;94044.63;4953928;28;20411;-66
2022/05/11 08:33:29;;;;;;;7.47;5.80;;;;;;;31.22;27.11;94046.63;4953538;28;20260;-61
2022/05/11 08:36:18;;;;;;;9.75;5.03;;;;;;;31.12;27.26;94049.16;4953840;28;20057;-60
2022/05/11 08:38:49;;;;;;;6.57;5.20;;;;;;;30.74;28.49;94040.91;4954308;28;20078;-63
2022/05/11 08:41:26;;;;;;;6.33;5.60;;;;;;;30.90;27.85;94035.47;4953874;28;20049;-60
2022/05/11 08:44:27;;;;;;;8.18;6.53;;;;;;;31.45;27.41;94039.16;4956210;28;20515;-60
2022/05/11 08:46:56;;;;;;;8.63;5.70;;;;;;;31.94;26.93;94031.28;4972343;28;20928;-62
2022/05/11 08:49:29;;;;;;;7.57;5.40;;;;;;;31.88;26.98;94033.50;4972907;28;20043;-60
2022/05/11 08:52:00;;;;;;;6.53;5.20;;;;;;;32.17;26.70;94035.06;4973411;28;20419;-60
2022/05/11 08:54:32;;;;;;;6.40;5.50;;;;;;;30.06;30.00;94042.19;4972457;28;22092;-65
2022/05/11 08:57:01;;;;;;;7.47;5.93;;;;;;;29.92;30.49;94034.19;4973163;28;20051;-60
2022/05/11 08:59:31;;;;;;;8.70;6.00;;;;;;;30.88;29.39;94029.56;4972282;28;20976;-65
2022/05/11 09:02:03;;;;;;;7.22;6.18;;;;;;;30.53;30.35;94037.22;4973172;28;20043;-60
2022/05/11 09:04:45;;;;;;;6.55;5.20;;;;;;;30.30;29.32;94053.84;4972527;28;20831;-62
2022/05/11 09:13:26;;;;;;;7.80;5.43;;;;;;;30.70;28.15;94025.53;5288441;23;20035;-50
2022/05/11 09:15:55;;;;;;;8.80;5.60;;;;;;;30.66;28.77;94031.53;4991203;28;20050;-51
2022/05/11 09:18:31;;;;;;;6.70;5.95;;;;;;;30.24;28.92;94029.25;4991192;28;20053;-51
2022/05/11 09:21:03;;;;;;;6.63;5.20;;;;;;;31.99;26.71;94022.59;4990265;28;20548;-48
2022/05/11 09:23:41;;;;;;;8.90;6.40;;;;;;;31.33;27.40;94026.53;4990495;28;21458;-52
2022/05/11 09:26:12;;;;;;;10.55;5.40;;;;;;;31.56;27.16;94023.19;4990688;28;20317;-53
2022/05/11 09:28:42;;;;;;;6.20;5.07;;;;;;;31.20;27.35;94024.47;4990632;28;20042;-53
2022/05/11 09:31:12;;;;;;;7.32;5.10;;;;;;;31.71;25.89;94019.72;4990285;28;20053;-50
2022/05/11 09:33:55;;;;;;;6.70;5.00;;;;;;;32.50;25.35;94015.63;4991368;28;20487;-51
2022/05/11 09:36:54;;;;;;;6.95;5.15;;;;;;;32.28;26.09;94025.50;4990263;28;20073;-50
2022/05/11 09:39:21;;;;;;;5.72;4.90;;;;;;;32.14;26.21;94010.66;4990485;28;20371;-52
2022/05/11 09:41:51;;;;;;;7.28;5.10;;;;;;;32.56;26.37;94012.63;4991077;28;20042;-51
2022/05/11 09:44:20;;;;;;;5.93;4.90;;;;;;;30.82;27.55;94019.09;4990050;28;20064;-49
2022/05/11 09:46:47;;;;;;;7.27;5.00;;;;;;;30.28;27.60;94014.75;4990795;28;20050;-48
2022/05/11 09:49:17;;;;;;;5.72;4.80;;;;;;;32.94;25.19;94020.59;4972893;28;20042;-50
2022/05/11 09:51:46;;;;;;;6.82;4.70;;;;;;;32.00;24.30;94029.09;4991081;28;20494;-49
2022/05/11 09:54:48;;;;;;;5.47;4.30;;;;;;;29.85;26.12;94008.06;4990486;28;20384;-49
2022/05/11 09:57:27;;;;;;;7.22;4.53;;;;;;;30.19;25.87;94018.00;4990269;28;20046;-53
2022/05/11 10:00:17;;;;;;;5.60;4.37;;;;;;;31.40;24.91;94008.81;4990910;28;20056;-51
2022/05/11 10:02:49;;;;;;;5.28;4.30;;;;;;;31.87;23.39;94017.78;4989660;28;21278;-48
2022/05/11 10:05:24;;;;;;;7.25;4.72;;;;;;;32.67;22.54;94015.16;4990000;28;20054;-49
2022/05/11 10:08:22;;;;;;;6.15;4.30;;;;;;;34.50;20.60;94012.53;4973427;28;20093;-53
2022/05/11 10:10:54;;;;;;;6.07;4.30;;;;;;;31.09;24.28;94015.47;4989345;28;20054;-52
2022/05/11 10:13:21;;;;;;;9.67;4.27;;;;;;;31.31;22.82;94014.19;4987687;28;20054;-51
2022/05/11 10:21:50;;;;;;;6.35;4.13;;;;;;;32.96;22.17;93998.81;4981703;28;20042;-50
2022/05/11 10:24:41;;;;;;;5.65;4.10;;;;;;;34.10;21.09;93993.91;4981511;28;20076;-50
2022/05/11 10:27:15;;;;;;;6.07;4.10;;;;;;;33.99;21.08;93988.63;4989705;28;20042;-48
2022/05/11 10:30:05;;;;;;;6.68;4.13;;;;;;;32.95;21.85;93994.44;4990614;28;20043;-54
2022/05/11 10:32:53;;;;;;;5.70;4.50;;;;;;;29.95;25.35;93993.50;4989502;28;21265;-55
2022/05/11 10:35:43;;;;;;;5.30;4.30;;;;;;;30.37;24.77;93986.03;4972466;28;20054;-46
2022/05/11 10:38:43;;;;;;;6.95;4.07;;;;;;;31.43;23.84;93976.53;4989901;28;20505;-49
2022/05/11 10:41:32;;;;;;;6.17;4.37;;;;;;;30.86;24.51;93987.59;4990024;28;20042;-51
2022/05/11 10:44:22;;;;;;;5.70;4.32;;;;;;;30.94;24.97;93971.47;4990313;28;20068;-50
2022/05/11 10:47:01;;;;;;;6.57;4.55;;;;;;;29.88;26.01;93969.44;4989351;28;21655;-47
2022/05/11 10:49:34;;;;;;;6.10;4.38;;;;;;;29.99;25.91;93966.41;4989398;28;20926;-52
2022/05/11 10:52:50;;;;;;;5.70;4.50;;;;;;;30.06;26.18;93964.97;4989855;28;20054;-50
2022/05/11 10:55:28;;;;;;;6.03;4.30;;;;;;;29.13;27.01;93970.41;4976673;28;20053;-51
2022/05/11 10:58:16;;;;;;;5.65;4.63;;;;;;;28.74;27.78;93968.91;4990313;28;20046;-49
2022/05/11 11:00:51;;;;;;;5.45;4.60;;;;;;;27.78;28.73;93956.63;4989288;28;20635;-49
2022/05/11 11:03:29;;;;;;;6.57;4.53;;;;;;;27.03;29.87;93949.31;4989581;28;20069;-50
2022/05/11 11:09:01;;;;;;;7.00;4.53;;;;;;;25.83;31.50;93953.16;4989460;28;20839;-49
2022/05/11 11:11:57;;;;;;;6.45;4.80;;;;;;;26.11;31.36;93941.09;4989562;28;20102;-51
2022/05/11 11:14:32;;;;;;;7.50;4.65;;;;;;;25.68;32.94;93944.28;4989760;28;20048;-54
2022/05/11 11:17:05;;;;;;;6.25;4.50;;;;;;;25.62;32.67;93935.09;4989762;28;20076;-56
2022/05/11 11:19:34;;;;;;;8.00;4.68;;;;;;;25.72;32.64;93930.72;4989812;28;20055;-55
2022/05/11 11:22:04;;;;;;;8.20;4.70;;;;;;;25.61;32.86;93942.72;4988166;28;20050;-51
2022/05/11 11:24:32;;;;;;;5.85;4.72;;;;;;;25.41;32.96;93934.59;4990175;28;20046;-50
2022/05/11 11:27:02;;;;;;;8.63;5.10;;;;;;;25.38;33.35;93930.00;4990168;28;20050;-51
2022/05/11 11:29:32;;;;;;;9.95;4.72;;;;;;;25.08;32.93;93933.31;4988947;28;20397;-51
2022/05/11 11:32:04;;;;;;;5.97;4.50;;;;;;;25.12;32.92;93920.53;4989958;28;20050;-51
2022/05/11 11:34:37;;;;;;;8.20;4.57;;;;;;;25.59;32.34;93927.66;4989248;28;20710;-51
2022/05/11 11:37:32;;;;;;;6.30;4.55;;;;;;;25.35;32.51;93933.84;4989594;28;20487;-49
2022/05/11 11:40:12;;;;;;;7.55;4.90;;;;;;;25.38;32.64;93913.16;4993662;28;20461;-50
2022/05/11 11:42:44;;;;;;;6.35;4.53;;;;;;;25.51;32.24;93913.38;4992468;28;20920;-53
2022/05/11 11:45:31;;;;;;;8.02;4.50;;;;;;;25.32;32.81;93927.22;4993047;28;20047;-54
2022/05/11 11:48:23;;;;;;;7.33;4.70;;;;;;;25.50;32.83;93920.28;4980445;28;20402;-54
2022/05/11 11:51:05;;;;;;;5.07;4.00;;;;;;;25.25;33.01;93903.22;4992636;28;21748;-52
2022/05/11 11:53:38;;;;;;;6.00;4.50;;;;;;;25.53;32.54;93910.81;4992850;28;21595;-54
2022/05/11 11:56:23;;;;;;;6.38;4.30;;;;;;;25.11;33.46;93898.59;4992870;28;20046;-54
2022/05/11 11:59:22;;;;;;;6.35;4.30;;;;;;;25.22;32.51;93903.47;4993356;28;20050;-49
2022/05/11 12:01:52;;;;;;;6.43;4.30;;;;;;;25.23;32.35;93902.97;4981055;28;21676;-51
2022/05/11 12:04:27;;;;;;;6.13;4.22;;;;;;;25.26;32.96;93898.38;4993141;28;20068;-52
2022/05/11 12:15:30;;;;;;;6.00;4.60;;;;;;;26.73;31.71;93880.94;4992058;28;20047;-61
2022/05/11 12:17:57;;;;;;;7.25;4.90;;;;;;;26.69;32.03;93892.47;4992783;28;20461;-61
2022/05/11 12:20:25;;;;;;;6.18;4.85;;;;;;;26.26;32.17;93887.34;4991613;28;20050;-61
2022/05/11 12:22:55;;;;;;;6.93;4.25;;;;;;;26.36;31.46;93887.78;4974988;28;20058;-62
2022/05/11 12:25:26;;;;;;;6.07;4.55;;;;;;;25.60;32.76;93887.06;4991905;28;20042;-61
2022/05/11 12:27:55;;;;;;;8.03;4.80;;;;;;;26.22;34.17;93892.44;4992203;28;20042;-61
2022/05/11 12:30:26;;;;;;;7.22;4.97;;;;;;;25.97;32.91;93885.94;4991467;28;20038;-61
2022/05/11 12:32:59;;;;;;;9.80;4.80;;;;;;;26.26;32.52;93884.53;4992313;28;20072;-61
2022/05/11 12:35:41;;;;;;;5.85;4.60;;;;;;;26.54;31.75;93890.00;4990998;28;20447;-61